createdAt,value
2022-08-07T00:00:22.449Z,40.40
2022-08-07T00:02:36.670Z,40.02
2022-08-07T00:03:17.349Z,39.97
2022-08-07T00:04:25.909Z,40.07
2022-08-07T00:05:33.958Z,39.98
2022-08-07T00:06:51.607Z,39.89
2022-08-07T00:08:02.445Z,39.73
2022-08-07T00:09:17.151Z,39.95
2022-08-07T00:10:31.917Z,40.02
2022-08-07T00:11:47.854Z,39.97
2022-08-07T00:13:17.524Z,40.01
2022-08-07T00:14:34.817Z,39.91
2022-08-07T00:15:46.889Z,39.80
2022-08-07T00:17:02.911Z,39.82
2022-08-07T00:18:19.389Z,39.72
2022-08-07T00:20:01.604Z,39.72
2022-08-07T00:21:03.278Z,39.56
2022-08-07T00:22:24.894Z,39.62
2022-08-07T00:23:45.780Z,39.30
2022-08-07T00:24:56.828Z,39.25
2022-08-07T00:26:12.955Z,39.04
2022-08-07T00:27:35.920Z,39.16
2022-08-07T00:28:59.837Z,39.31
2022-08-07T00:30:26.595Z,38.97
2022-08-07T00:31:38.213Z,38.91
2022-08-07T00:32:54.393Z,38.69
2022-08-07T00:34:02.310Z,38.71
2022-08-07T00:35:11.357Z,38.43
2022-08-07T00:36:29.254Z,38.15
2022-08-07T00:37:48.143Z,38.03
2022-08-07T00:38:58.988Z,37.96
2022-08-07T00:40:10.901Z,38.06
2022-08-07T00:41:37.299Z,38.08
2022-08-07T00:42:54.458Z,37.81
2022-08-07T00:44:06.187Z,37.72
2022-08-07T00:45:16.752Z,37.68
2022-08-07T00:46:28.888Z,37.77
2022-08-07T00:48:08.846Z,37.82
2022-08-07T00:49:06.103Z,38.05
2022-08-07T00:50:46.511Z,38.01
2022-08-07T00:51:58.271Z,37.95
2022-08-07T00:53:09.254Z,38.00
2022-08-07T00:54:19.791Z,38.13
2022-08-07T00:56:03.003Z,38.25
2022-08-07T00:56:59.767Z,38.21
2022-08-07T00:58:07.611Z,38.15
2022-08-07T00:59:20.314Z,38.13
2022-08-07T01:00:53.674Z,38.05
2022-08-07T01:02:27.812Z,37.78
2022-08-07T01:03:55.449Z,37.87
2022-08-07T01:05:19.093Z,37.93
2022-08-07T01:06:29.442Z,37.86
2022-08-07T01:07:38.511Z,37.53
2022-08-07T01:08:53.193Z,37.36
2022-08-07T01:10:02.473Z,37.23
2022-08-07T01:12:24.069Z,37.26
2022-08-07T01:12:53.787Z,37.27
2022-08-07T01:14:05.104Z,37.15
2022-08-07T01:15:17.001Z,37.07
2022-08-07T01:16:30.775Z,37.04
2022-08-07T01:17:40.053Z,36.97
2022-08-07T01:18:50.697Z,36.97
2022-08-07T01:20:00.687Z,37.06
2022-08-07T01:21:24.404Z,37.17
2022-08-07T01:22:46.644Z,37.09
2022-08-07T01:24:03.866Z,37.07
2022-08-07T01:25:40.645Z,36.99
2022-08-07T01:26:45.206Z,36.76
2022-08-07T01:28:04.044Z,36.80
2022-08-07T01:29:15.807Z,36.78
2022-08-07T01:30:27.236Z,36.67
2022-08-07T01:31:42.708Z,36.53
2022-08-07T01:32:57.277Z,36.69
2022-08-07T01:34:09.311Z,36.66
2022-08-07T01:35:21.202Z,36.51
2022-08-07T01:36:40.692Z,36.47
2022-08-07T01:37:57.008Z,36.42
2022-08-07T01:39:09.944Z,36.33
2022-08-07T01:40:23.289Z,36.43
2022-08-07T01:41:36.075Z,36.53
2022-08-07T01:42:58.663Z,36.39
2022-08-07T01:44:13.596Z,36.38
2022-08-07T01:45:36.408Z,36.24
2022-08-07T01:46:56.072Z,36.13
2022-08-07T01:48:19.231Z,36.17
2022-08-07T01:49:32.684Z,36.09
2022-08-07T01:50:43.250Z,35.87
2022-08-07T01:52:02.833Z,35.78
2022-08-07T01:53:20.887Z,35.71
2022-08-07T01:54:43.053Z,35.62
2022-08-07T01:56:03.496Z,35.58
2022-08-07T01:57:24.466Z,35.54
2022-08-07T01:58:45.263Z,35.40
2022-08-07T02:00:19.927Z,35.17
2022-08-07T02:02:02.331Z,34.73
2022-08-07T02:03:21.490Z,34.47
2022-08-07T02:04:57.393Z,34.44
2022-08-07T02:06:30.708Z,34.35
2022-08-07T02:07:52.471Z,34.26
2022-08-07T02:09:11.673Z,34.24
2022-08-07T02:10:42.868Z,34.22
2022-08-07T02:12:03.287Z,34.19
2022-08-07T02:13:18.175Z,34.09
2022-08-07T02:14:35.774Z,33.93
2022-08-07T02:15:54.373Z,33.88
2022-08-07T02:17:06.162Z,33.74
2022-08-07T02:18:15.436Z,33.64
2022-08-07T02:20:04.606Z,33.55
2022-08-07T02:20:59.248Z,33.35
2022-08-07T02:22:25.616Z,33.21
2022-08-07T02:23:38.764Z,33.07
2022-08-07T02:24:50.280Z,32.95
2022-08-07T02:26:31.668Z,32.85
2022-08-07T02:27:34.217Z,32.71
2022-08-07T02:28:43.519Z,32.52
2022-08-07T02:29:54.473Z,32.36
2022-08-07T02:31:10.276Z,31.99
2022-08-07T02:33:03.788Z,31.61
2022-08-07T02:34:11.082Z,31.29
2022-08-07T02:36:30.916Z,31.03
2022-08-07T02:37:03.993Z,30.79
2022-08-07T02:38:22.725Z,30.59
2022-08-07T02:39:43.935Z,30.41
2022-08-07T02:41:11.157Z,30.23
2022-08-07T02:42:21.386Z,30.12
2022-08-07T02:43:31.264Z,30.00
2022-08-07T02:44:42.254Z,29.88
2022-08-07T02:46:02.786Z,29.75
2022-08-07T02:47:19.826Z,29.65
2022-08-07T02:48:47.175Z,29.54
2022-08-07T02:50:05.847Z,29.46
2022-08-07T02:51:41.817Z,29.37
2022-08-07T02:53:06.053Z,29.27
2022-08-07T02:54:18.414Z,29.16
2022-08-07T02:56:03.179Z,29.09
2022-08-07T02:57:03.799Z,29.01
2022-08-07T02:58:27.268Z,28.94
2022-08-07T02:59:36.829Z,28.88
2022-08-07T03:00:47.421Z,28.83
2022-08-07T03:01:57.678Z,28.75
2022-08-07T03:03:14.262Z,28.67
2022-08-07T03:04:36.313Z,28.59
2022-08-07T03:05:46.345Z,28.52
2022-08-07T03:06:58.102Z,28.47
2022-08-07T03:08:16.982Z,28.40
2022-08-07T03:09:43.912Z,28.35
2022-08-07T03:10:54.926Z,28.29
2022-08-07T03:12:21.700Z,28.24
2022-08-07T03:13:38.782Z,28.20
2022-08-07T03:14:53.066Z,28.14
2022-08-07T03:16:07.106Z,28.09
2022-08-07T03:17:16.817Z,28.04
2022-08-07T03:18:34.818Z,27.99
2022-08-07T03:19:55.201Z,27.92
2022-08-07T03:21:08.837Z,27.88
2022-08-07T03:22:24.286Z,27.86
2022-08-07T03:24:20.116Z,27.82
2022-08-07T03:25:12.040Z,27.73
2022-08-07T03:26:26.894Z,27.69
2022-08-07T03:28:09.755Z,27.67
2022-08-07T03:29:11.045Z,27.62
2022-08-07T03:30:20.149Z,27.57
2022-08-07T03:31:42.595Z,27.51
2022-08-07T03:32:58.421Z,27.44
2022-08-07T03:34:18.842Z,27.37
2022-08-07T03:35:43.601Z,27.30
2022-08-07T03:37:12.259Z,27.24
2022-08-07T03:38:29.409Z,27.19
2022-08-07T03:39:58.845Z,27.15
2022-08-07T03:41:10.459Z,27.08
2022-08-07T03:42:20.130Z,27.07
2022-08-07T03:43:32.256Z,27.04
2022-08-07T03:44:41.728Z,26.98
2022-08-07T03:45:51.601Z,26.96
2022-08-07T03:47:11.201Z,26.94
2022-08-07T03:48:24.459Z,26.89
2022-08-07T03:49:34.736Z,26.84
2022-08-07T03:50:56.188Z,26.81
2022-08-07T03:52:26.851Z,26.75
2022-08-07T03:54:05.597Z,26.69
2022-08-07T03:55:09.484Z,26.61
2022-08-07T03:56:32.750Z,26.57
2022-08-07T03:58:33.261Z,26.54
2022-08-07T03:59:17.186Z,26.50
2022-08-07T04:00:33.703Z,26.49
2022-08-07T04:01:48.280Z,26.48
2022-08-07T04:03:05.079Z,26.46
2022-08-07T04:04:20.791Z,26.43
2022-08-07T04:05:39.608Z,26.40
2022-08-07T04:07:01.954Z,26.37
2022-08-07T04:08:29.979Z,26.34
2022-08-07T04:09:45.218Z,26.31
2022-08-07T04:12:26.964Z,26.28
2022-08-07T04:12:39.960Z,26.27
2022-08-07T04:14:10.477Z,26.26
2022-08-07T04:15:19.927Z,26.24
2022-08-07T04:16:36.193Z,26.24
2022-08-07T04:18:30.797Z,26.23
2022-08-07T04:19:18.589Z,26.22
2022-08-07T04:20:35.347Z,26.21
2022-08-07T04:21:58.922Z,26.19
2022-08-07T04:23:19.229Z,26.16
2022-08-07T04:24:33.925Z,26.10
2022-08-07T04:25:51.097Z,26.04
2022-08-07T04:27:04.477Z,25.99
2022-08-07T04:28:14.170Z,25.95
2022-08-07T04:29:27.783Z,25.91
2022-08-07T04:30:58.719Z,25.89
2022-08-07T04:32:14.364Z,25.85
2022-08-07T04:33:27.331Z,25.83
2022-08-07T04:34:39.415Z,25.79
2022-08-07T04:35:51.227Z,25.75
2022-08-07T04:37:07.977Z,25.69
2022-08-07T04:38:25.735Z,25.65
2022-08-07T04:39:35.859Z,25.64
2022-08-07T04:40:52.143Z,25.63
2022-08-07T04:42:08.067Z,25.59
2022-08-07T04:43:22.084Z,25.54
2022-08-07T04:44:54.806Z,25.50
2022-08-07T04:46:34.886Z,25.49
2022-08-07T04:48:10.850Z,25.46
2022-08-07T04:49:41.340Z,25.43
2022-08-07T04:51:09.014Z,25.39
2022-08-07T04:52:53.993Z,25.39
2022-08-07T04:54:38.932Z,25.37
2022-08-07T04:58:12.970Z,25.31
2022-08-07T04:58:33.727Z,25.25
2022-08-07T05:00:11.270Z,25.20
2022-08-07T05:02:00.591Z,25.19
2022-08-07T05:04:08.045Z,25.15
2022-08-07T05:05:52.686Z,25.14
2022-08-07T05:07:48.384Z,25.09
2022-08-07T05:09:43.170Z,25.00
2022-08-07T05:11:11.649Z,24.95
2022-08-07T05:14:44.772Z,24.94
2022-08-07T05:14:52.325Z,24.88
2022-08-07T05:16:12.594Z,24.79
2022-08-07T05:17:50.861Z,24.71
2022-08-07T05:19:06.487Z,24.63
2022-08-07T05:20:17.569Z,24.54
2022-08-07T05:22:00.047Z,24.49
2022-08-07T05:23:03.230Z,24.47
2022-08-07T05:24:19.722Z,24.45
2022-08-07T05:26:08.802Z,24.44
2022-08-07T05:27:03.147Z,24.42
2022-08-07T05:28:20.503Z,24.40
2022-08-07T05:29:51.241Z,24.35
2022-08-07T05:31:01.058Z,24.31
2022-08-07T05:32:12.951Z,24.29
2022-08-07T05:33:22.015Z,24.28
2022-08-07T05:34:30.652Z,24.28
2022-08-07T05:35:42.438Z,24.29
2022-08-07T05:37:02.362Z,24.30
2022-08-07T05:39:00.018Z,24.34
2022-08-07T05:40:14.360Z,24.35
2022-08-07T05:41:23.430Z,24.38
2022-08-07T05:42:34.366Z,24.41
2022-08-07T05:44:06.761Z,24.43
2022-08-07T05:45:46.956Z,24.43
2022-08-07T05:46:52.042Z,24.44
2022-08-07T05:48:06.501Z,24.48
2022-08-07T05:49:20.912Z,24.52
2022-08-07T05:50:39.367Z,24.53
2022-08-07T05:51:53.213Z,24.54
2022-08-07T05:53:05.344Z,24.54
2022-08-07T05:54:53.499Z,24.53
2022-08-07T05:56:06.103Z,24.51
2022-08-07T05:57:20.027Z,24.48
2022-08-07T05:58:36.533Z,24.44
2022-08-07T05:59:57.801Z,24.40
2022-08-07T06:01:22.240Z,24.32
2022-08-07T06:02:32.756Z,24.26
2022-08-07T06:03:56.480Z,24.19
2022-08-07T06:05:15.778Z,24.09
2022-08-07T06:06:32.574Z,24.01
2022-08-07T06:08:12.339Z,23.94
2022-08-07T06:09:14.523Z,23.86
2022-08-07T06:10:26.394Z,23.80
2022-08-07T06:11:35.920Z,23.73
2022-08-07T06:12:45.655Z,23.69
2022-08-07T06:14:13.594Z,23.66
2022-08-07T06:15:42.014Z,23.62
2022-08-07T06:16:55.796Z,23.59
2022-08-07T06:18:15.845Z,23.57
2022-08-07T06:19:51.858Z,23.53
2022-08-07T06:22:14.587Z,23.47
2022-08-07T06:22:24.075Z,23.40
2022-08-07T06:24:38.124Z,23.32
2022-08-07T06:25:11.631Z,23.23
2022-08-07T06:26:27.442Z,23.14
2022-08-07T06:27:44.454Z,23.10
2022-08-07T06:29:06.801Z,23.06
2022-08-07T06:30:31.837Z,23.03
2022-08-07T06:31:50.287Z,23.00
2022-08-07T06:33:00.358Z,22.97
2022-08-07T06:34:10.237Z,22.94
2022-08-07T06:35:21.790Z,22.92
2022-08-07T06:36:34.828Z,22.89
2022-08-07T06:37:47.913Z,22.84
2022-08-07T06:40:15.662Z,22.80
2022-08-07T06:40:49.321Z,22.77
2022-08-07T06:42:34.791Z,22.75
2022-08-07T06:44:01.799Z,22.70
2022-08-07T06:45:18.139Z,22.67
2022-08-07T06:46:35.515Z,22.64
2022-08-07T06:47:48.372Z,22.63
2022-08-07T06:49:10.500Z,22.62
2022-08-07T06:50:19.222Z,22.62
2022-08-07T06:51:33.522Z,22.64
2022-08-07T06:52:47.170Z,22.68
2022-08-07T06:55:29.353Z,22.71
2022-08-07T06:55:53.832Z,22.70
2022-08-07T06:57:07.305Z,22.68
2022-08-07T06:58:17.057Z,22.64
2022-08-07T07:00:13.863Z,22.63
2022-08-07T07:01:08.979Z,22.61
2022-08-07T07:02:48.688Z,22.61
2022-08-07T07:04:27.718Z,22.61
2022-08-07T07:06:03.685Z,22.60
2022-08-07T07:07:01.113Z,22.59
2022-08-07T07:08:18.482Z,22.58
2022-08-07T07:09:36.228Z,22.58
2022-08-07T07:10:54.692Z,22.61
2022-08-07T07:12:31.070Z,22.62
2022-08-07T07:13:57.808Z,22.62
2022-08-07T07:15:24.089Z,22.62
2022-08-07T07:16:45.405Z,22.61
2022-08-07T07:18:12.224Z,22.60
2022-08-07T07:19:56.973Z,22.59
2022-08-07T07:20:55.687Z,22.59
2022-08-07T07:22:05.289Z,22.59
2022-08-07T07:24:06.161Z,22.59
2022-08-07T07:25:02.623Z,22.57
2022-08-07T07:26:34.426Z,22.56
2022-08-07T07:28:42.518Z,22.53
2022-08-07T07:30:09.156Z,22.48
2022-08-07T07:31:30.476Z,22.47
2022-08-07T07:32:51.528Z,22.45
2022-08-07T07:34:06.597Z,22.42
2022-08-07T07:35:16.030Z,22.39
2022-08-07T07:36:24.336Z,22.36
2022-08-07T07:37:47.246Z,22.32
2022-08-07T07:39:02.814Z,22.29
2022-08-07T07:40:16.970Z,22.25
2022-08-07T07:41:50.314Z,22.20
2022-08-07T07:42:55.461Z,22.10
2022-08-07T07:44:17.530Z,22.03
2022-08-07T07:46:39.741Z,21.96
2022-08-07T07:47:11.974Z,21.91
2022-08-07T07:48:35.769Z,21.85
2022-08-07T07:50:35.101Z,21.83
2022-08-07T07:51:15.431Z,21.79
2022-08-07T07:52:24.476Z,21.78
2022-08-07T07:53:34.962Z,21.75
2022-08-07T07:54:50.549Z,21.74
2022-08-07T07:56:03.632Z,21.73
2022-08-07T07:57:13.007Z,21.74
2022-08-07T07:58:20.646Z,21.74
2022-08-07T07:59:52.197Z,21.76
2022-08-07T08:01:03.070Z,21.76
2022-08-07T08:02:35.841Z,21.76
2022-08-07T08:04:10.612Z,21.76
2022-08-07T08:05:15.041Z,21.74
2022-08-07T08:06:25.367Z,21.73
2022-08-07T08:07:35.598Z,21.73
2022-08-07T08:08:52.024Z,21.72
2022-08-07T08:10:05.525Z,21.70
2022-08-07T08:11:18.041Z,21.68
2022-08-07T08:12:58.983Z,21.68
2022-08-07T08:14:12.303Z,21.68
2022-08-07T08:16:53.227Z,21.65
2022-08-07T08:18:17.217Z,21.61
2022-08-07T08:18:36.321Z,21.66
2022-08-07T08:20:17.117Z,21.58
2022-08-07T08:21:00.764Z,21.56
2022-08-07T08:22:32.766Z,21.55
2022-08-07T08:23:59.874Z,21.54
2022-08-07T08:25:42.243Z,21.53
2022-08-07T08:27:11.633Z,21.52
2022-08-07T08:28:37.867Z,21.52
2022-08-07T08:29:56.274Z,21.51
2022-08-07T08:31:05.498Z,21.48
2022-08-07T08:32:18.554Z,21.44
2022-08-07T08:33:33.804Z,21.41
2022-08-07T08:34:44.942Z,21.42
2022-08-07T08:35:53.879Z,21.45
2022-08-07T08:37:02.662Z,21.47
2022-08-07T08:38:11.861Z,21.47
2022-08-07T08:39:23.803Z,21.49
2022-08-07T08:40:40.580Z,21.49
2022-08-07T08:41:57.521Z,21.48
2022-08-07T08:43:20.087Z,21.45
2022-08-07T08:44:36.248Z,21.45
2022-08-07T08:46:15.669Z,21.45
2022-08-07T08:47:52.557Z,21.46
2022-08-07T08:49:33.376Z,21.48
2022-08-07T08:50:49.250Z,21.47
2022-08-07T08:52:13.923Z,21.45
2022-08-07T08:53:45.848Z,21.43
2022-08-07T08:55:53.151Z,21.40
2022-08-07T08:56:55.240Z,21.36
2022-08-07T08:58:28.526Z,21.34
2022-08-07T08:59:52.596Z,21.33
2022-08-07T09:01:21.586Z,21.30
2022-08-07T09:02:49.415Z,21.28
2022-08-07T09:04:32.787Z,21.28
2022-08-07T09:05:56.033Z,21.28
2022-08-07T09:07:11.783Z,21.25
2022-08-07T09:08:43.972Z,21.23
2022-08-07T09:10:31.596Z,21.17
2022-08-07T09:11:54.188Z,21.12
2022-08-07T09:13:19.785Z,21.08
2022-08-07T09:16:23.467Z,21.04
2022-08-07T09:17:06.963Z,21.00
2022-08-07T09:18:58.445Z,20.94
2022-08-07T09:20:57.877Z,20.87
2022-08-07T09:24:53.813Z,20.79
2022-08-07T09:24:59.687Z,20.72
2022-08-07T09:26:29.601Z,20.64
2022-08-07T09:27:59.678Z,20.56
2022-08-07T09:30:03.369Z,20.50
2022-08-07T09:31:01.319Z,20.45
2022-08-07T09:32:29.001Z,20.43
2022-08-07T09:34:04.043Z,20.40
2022-08-07T09:36:03.839Z,20.35
2022-08-07T09:37:47.876Z,20.31
2022-08-07T09:39:54.016Z,20.31
2022-08-07T09:41:43.378Z,20.34
2022-08-07T09:44:03.630Z,20.34
2022-08-07T09:47:23.433Z,20.32
2022-08-07T09:47:50.719Z,20.28
2022-08-07T09:50:01.161Z,20.25
2022-08-07T09:51:02.446Z,20.18
2022-08-07T09:52:37.156Z,20.11
2022-08-07T09:53:48.846Z,20.06
2022-08-07T09:55:29.252Z,20.04
2022-08-07T09:57:01.468Z,20.05
2022-08-07T09:58:43.647Z,20.06
2022-08-07T10:00:15.071Z,20.05
2022-08-07T10:01:51.545Z,20.04
2022-08-07T10:04:06.152Z,20.03
2022-08-07T10:06:00.361Z,20.06
2022-08-07T10:07:39.710Z,20.07
2022-08-07T10:09:34.165Z,20.07
2022-08-07T10:12:00.135Z,20.07
2022-08-07T10:13:29.718Z,20.07
2022-08-07T10:15:26.614Z,20.09
2022-08-07T10:17:01.519Z,20.09
2022-08-07T10:18:26.647Z,20.10
2022-08-07T10:20:12.968Z,20.09
2022-08-07T10:22:12.136Z,20.05
2022-08-07T10:24:06.093Z,20.04
2022-08-07T10:25:20.954Z,20.03
2022-08-07T10:27:12.415Z,20.01
2022-08-07T10:28:27.925Z,19.99
2022-08-07T10:30:12.134Z,19.99
2022-08-07T10:31:38.742Z,19.97
2022-08-07T10:33:14.990Z,19.96
2022-08-07T10:34:27.230Z,19.95
2022-08-07T10:36:18.978Z,19.93
2022-08-07T10:38:36.247Z,19.86
2022-08-07T10:40:30.280Z,19.80
2022-08-07T10:41:53.053Z,19.76
2022-08-07T10:43:34.625Z,19.72
2022-08-07T10:45:19.606Z,19.70
2022-08-07T10:47:27.159Z,19.69
2022-08-07T10:49:16.963Z,19.68
2022-08-07T10:51:16.777Z,19.67
2022-08-07T10:52:53.108Z,19.65
2022-08-07T10:54:13.773Z,19.65
2022-08-07T10:55:38.244Z,19.64
2022-08-07T10:56:52.286Z,19.64
2022-08-07T10:58:05.664Z,19.64
2022-08-07T10:59:45.337Z,19.63
2022-08-07T11:01:00.796Z,19.59
2022-08-07T11:02:34.142Z,19.56
2022-08-07T11:04:01.361Z,19.54
2022-08-07T11:05:58.239Z,19.52
2022-08-07T11:07:59.085Z,19.48
2022-08-07T11:09:11.513Z,19.42
2022-08-07T11:10:37.441Z,19.39
2022-08-07T11:11:59.324Z,19.41
2022-08-07T11:14:44.811Z,19.43
2022-08-07T11:15:17.263Z,19.46
2022-08-07T11:16:38.887Z,19.52
2022-08-07T11:18:22.658Z,19.57
2022-08-07T11:20:00.204Z,19.63
2022-08-07T11:21:17.501Z,19.68
2022-08-07T11:23:07.174Z,19.71
2022-08-07T11:24:56.219Z,19.73
2022-08-07T11:26:50.959Z,19.76
2022-08-07T11:28:09.217Z,19.84
2022-08-07T11:29:43.539Z,19.92
2022-08-07T11:30:59.548Z,19.97
2022-08-07T11:33:02.278Z,20.00
2022-08-07T11:34:55.790Z,19.99
2022-08-07T11:36:36.157Z,19.99
2022-08-07T11:37:58.030Z,19.95
2022-08-07T11:39:59.945Z,19.91
2022-08-07T11:41:29.695Z,19.84
2022-08-07T11:43:41.493Z,19.75
2022-08-07T11:44:58.171Z,19.66
2022-08-07T11:46:11.716Z,19.61
2022-08-07T11:47:38.871Z,19.55
2022-08-07T11:49:51.022Z,19.48
2022-08-07T11:51:41.748Z,19.44
2022-08-07T11:53:23.928Z,19.42
2022-08-07T11:55:13.042Z,19.39
2022-08-07T11:56:53.078Z,19.34
2022-08-07T11:58:52.376Z,19.33
2022-08-07T12:01:04.415Z,19.32
2022-08-07T12:02:38.357Z,19.31
2022-08-07T12:04:41.094Z,19.31
2022-08-07T12:06:38.901Z,19.28
2022-08-07T12:08:03.600Z,19.21
2022-08-07T12:09:31.753Z,19.19
2022-08-07T12:11:08.135Z,19.19
2022-08-07T12:12:28.828Z,19.17
2022-08-07T12:13:55.784Z,19.14
2022-08-07T12:15:35.904Z,19.12
2022-08-07T12:16:56.471Z,19.09
2022-08-07T12:18:50.715Z,19.07
2022-08-07T12:20:30.381Z,19.03
2022-08-07T12:22:37.338Z,18.99
2022-08-07T12:24:05.369Z,18.94
2022-08-07T12:26:22.096Z,18.92
2022-08-07T12:27:27.964Z,18.91
2022-08-07T12:29:15.288Z,18.90
2022-08-07T12:30:23.644Z,18.88
2022-08-07T12:31:52.861Z,18.88
2022-08-07T12:33:30.851Z,18.86
2022-08-07T12:34:56.336Z,18.82
2022-08-07T12:36:05.835Z,18.81
2022-08-07T12:37:23.528Z,18.83
2022-08-07T12:38:43.351Z,18.84
2022-08-07T12:39:55.644Z,18.87
2022-08-07T12:41:06.364Z,18.91
2022-08-07T12:42:27.306Z,18.95
2022-08-07T12:44:02.349Z,18.99
2022-08-07T12:45:11.593Z,19.01
2022-08-07T12:47:27.072Z,19.03
2022-08-07T12:49:40.244Z,19.05
2022-08-07T12:51:17.563Z,19.04
2022-08-07T12:52:36.506Z,19.03
2022-08-07T12:54:03.155Z,19.03
2022-08-07T12:55:41.092Z,19.04
2022-08-07T12:56:55.025Z,19.03
2022-08-07T12:58:02.788Z,19.04
2022-08-07T12:59:20.836Z,19.05
2022-08-07T13:01:11.137Z,19.07
2022-08-07T13:02:38.363Z,19.07
2022-08-07T13:04:09.790Z,19.09
2022-08-07T13:06:04.674Z,19.10
2022-08-07T13:08:13.700Z,19.13
2022-08-07T13:09:12.681Z,19.15
2022-08-07T13:11:02.400Z,19.18
2022-08-07T13:12:17.134Z,19.21
2022-08-07T13:13:48.591Z,19.23
2022-08-07T13:15:31.864Z,19.28
2022-08-07T13:17:07.946Z,19.32
2022-08-07T13:18:53.895Z,19.36
2022-08-07T13:20:27.755Z,19.39
2022-08-07T13:21:57.638Z,19.44
2022-08-07T13:24:01.680Z,19.51
2022-08-07T13:25:00.250Z,19.56
2022-08-07T13:26:37.053Z,19.58
2022-08-07T13:28:29.020Z,19.62
2022-08-07T13:30:19.499Z,19.64
2022-08-07T13:32:23.659Z,19.65
2022-08-07T13:34:34.290Z,19.66
2022-08-07T13:36:01.337Z,19.68
2022-08-07T13:37:01.315Z,19.77
2022-08-07T13:38:34.773Z,19.86
2022-08-07T13:40:34.143Z,20.00
2022-08-07T13:41:47.497Z,20.17
2022-08-07T13:42:59.060Z,20.31
2022-08-07T13:44:10.706Z,20.39
2022-08-07T13:46:20.890Z,20.47
2022-08-07T13:46:51.162Z,20.63
2022-08-07T13:48:08.515Z,20.81
2022-08-07T13:50:33.121Z,21.03
2022-08-07T13:51:00.269Z,21.27
2022-08-07T13:52:26.403Z,21.49
2022-08-07T13:54:00.130Z,21.74
2022-08-07T13:55:25.546Z,22.02
2022-08-07T13:56:41.126Z,22.31
2022-08-07T13:58:31.892Z,22.54
2022-08-07T13:59:40.058Z,22.70
2022-08-07T14:00:54.285Z,22.79
2022-08-07T14:02:14.896Z,22.92
2022-08-07T14:03:29.096Z,23.11
2022-08-07T14:04:56.599Z,23.35
2022-08-07T14:06:04.514Z,23.52
2022-08-07T14:07:15.253Z,23.65
2022-08-07T14:08:27.099Z,23.83
2022-08-07T14:10:17.420Z,24.03
2022-08-07T14:11:15.101Z,24.28
2022-08-07T14:12:55.509Z,24.51
2022-08-07T14:14:08.622Z,24.76
2022-08-07T14:15:50.544Z,24.93
2022-08-07T14:17:13.017Z,25.06
2022-08-07T14:18:57.201Z,25.14
2022-08-07T14:20:43.674Z,25.25
2022-08-07T14:22:01.876Z,25.47
2022-08-07T14:24:01.446Z,25.70
2022-08-07T14:25:13.968Z,25.99
2022-08-07T14:26:29.862Z,26.20
2022-08-07T14:28:12.846Z,26.42
2022-08-07T14:30:05.394Z,26.70
2022-08-07T14:31:14.070Z,27.04
2022-08-07T14:32:25.597Z,27.21
2022-08-07T14:35:07.491Z,27.56
2022-08-07T14:36:17.392Z,27.82
2022-08-07T14:38:55.722Z,27.99
2022-08-07T14:40:18.149Z,27.95
2022-08-07T14:42:18.841Z,27.79
2022-08-07T14:43:57.646Z,27.63
2022-08-07T14:44:37.100Z,27.66
2022-08-07T14:45:51.477Z,27.74
2022-08-07T14:47:14.137Z,27.81
2022-08-07T14:48:48.467Z,27.85
2022-08-07T14:49:59.174Z,27.94
2022-08-07T14:51:17.154Z,28.08
2022-08-07T14:52:28.010Z,28.24
2022-08-07T14:54:05.643Z,28.44
2022-08-07T14:55:17.426Z,28.67
2022-08-07T14:56:30.427Z,28.88
2022-08-07T14:57:58.014Z,29.15
2022-08-07T15:00:37.826Z,29.58
2022-08-07T15:01:51.488Z,29.68
2022-08-07T15:03:18.805Z,29.68
2022-08-07T15:04:28.824Z,29.64
2022-08-07T15:05:36.998Z,29.64
2022-08-07T15:07:17.679Z,29.69
2022-08-07T15:08:50.215Z,29.81
2022-08-07T15:10:08.198Z,29.83
2022-08-07T15:11:53.037Z,29.81
2022-08-07T15:13:19.243Z,29.84
2022-08-07T15:16:02.592Z,30.08
2022-08-07T15:17:17.919Z,30.16
2022-08-07T15:18:46.755Z,30.24
2022-08-07T15:20:33.656Z,30.39
2022-08-07T15:23:20.435Z,30.73
2022-08-07T15:25:15.513Z,30.88
2022-08-07T15:26:21.275Z,31.07
2022-08-07T15:27:32.120Z,31.24
2022-08-07T15:28:45.059Z,31.36
2022-08-07T15:30:16.847Z,31.55
2022-08-07T15:34:26.223Z,32.35
2022-08-07T15:36:01.652Z,32.67
2022-08-07T15:37:07.471Z,33.09
2022-08-07T15:38:30.376Z,33.42
2022-08-07T15:39:58.306Z,33.72
2022-08-07T15:41:23.374Z,33.97
2022-08-07T15:42:51.751Z,34.24
2022-08-07T15:44:13.267Z,34.46
2022-08-07T15:47:09.100Z,35.11
2022-08-07T15:48:36.118Z,35.33
2022-08-07T15:50:07.563Z,35.65
2022-08-07T15:51:18.204Z,35.85
2022-08-07T15:52:30.306Z,35.99
2022-08-07T15:53:54.429Z,36.07
2022-08-07T15:55:08.932Z,36.20
2022-08-07T15:56:24.363Z,36.33
2022-08-07T15:57:48.088Z,36.43
2022-08-07T15:59:03.005Z,36.41
2022-08-07T16:00:31.789Z,36.47
2022-08-07T16:02:01.693Z,36.72
2022-08-07T16:03:21.407Z,36.99
2022-08-07T16:04:46.876Z,37.13
2022-08-07T16:05:56.648Z,37.12
2022-08-07T16:08:32.106Z,37.13
2022-08-07T16:08:42.973Z,37.15
2022-08-07T16:10:20.386Z,37.27
2022-08-07T16:11:40.190Z,37.36
2022-08-07T16:13:57.894Z,37.35
2022-08-07T16:15:55.641Z,37.59
2022-08-07T16:18:02.062Z,37.81
2022-08-07T16:19:42.801Z,37.93
2022-08-07T16:22:03.557Z,37.82
2022-08-07T16:23:54.522Z,37.72
2022-08-07T16:25:54.491Z,37.72
2022-08-07T16:27:40.783Z,37.75
2022-08-07T16:30:10.183Z,37.74
2022-08-07T16:31:58.516Z,37.77
2022-08-07T16:34:01.625Z,37.86
2022-08-07T16:34:52.459Z,38.06
2022-08-07T16:37:02.057Z,38.04
2022-08-07T16:39:00.664Z,38.05
2022-08-07T16:40:33.690Z,38.27
2022-08-07T16:42:21.494Z,38.48
2022-08-07T16:44:05.912Z,38.60
2022-08-07T16:46:40.365Z,38.85
2022-08-07T16:47:56.997Z,38.99
2022-08-07T16:50:26.584Z,39.13
2022-08-07T16:51:21.575Z,39.32
2022-08-07T16:52:55.737Z,39.67
2022-08-07T16:54:16.674Z,39.94
2022-08-07T16:55:43.740Z,40.17
2022-08-07T16:58:02.702Z,40.41
2022-08-07T16:59:45.787Z,40.69
2022-08-07T17:01:03.099Z,40.75
2022-08-07T17:02:52.881Z,40.86
2022-08-07T17:04:25.159Z,40.67
2022-08-07T17:06:19.004Z,40.47
2022-08-07T17:07:57.939Z,40.27
2022-08-07T17:09:15.805Z,40.04
2022-08-07T17:10:54.786Z,39.83
2022-08-07T17:12:35.611Z,39.78
2022-08-07T17:14:22.161Z,39.92
2022-08-07T17:16:04.677Z,40.13
2022-08-07T17:17:46.120Z,40.37
2022-08-07T17:19:03.516Z,40.63
2022-08-07T17:20:46.560Z,40.72
2022-08-07T17:22:03.031Z,40.76
2022-08-07T17:23:32.522Z,40.84
2022-08-07T17:25:47.363Z,40.93
2022-08-07T17:27:02.513Z,40.95
2022-08-07T17:28:31.073Z,40.99
2022-08-07T17:30:14.245Z,41.16
2022-08-07T17:32:03.159Z,41.16
2022-08-07T17:34:32.656Z,41.01
2022-08-07T17:35:59.105Z,41.16
2022-08-07T17:38:09.397Z,41.25
2022-08-07T17:39:26.005Z,40.94
2022-08-07T17:42:02.579Z,40.63
2022-08-07T17:42:59.814Z,40.53
2022-08-07T17:44:49.993Z,40.35
2022-08-07T17:46:12.557Z,40.48
2022-08-07T17:47:45.448Z,40.76
2022-08-07T17:49:59.390Z,40.72
2022-08-07T17:52:03.677Z,40.94
2022-08-07T17:54:00.165Z,40.85
2022-08-07T17:55:16.476Z,40.74
2022-08-07T17:57:18.875Z,40.59
2022-08-07T17:58:34.711Z,40.63
2022-08-07T17:59:55.225Z,40.93
2022-08-07T18:01:21.167Z,41.05
2022-08-07T18:02:56.659Z,41.00
2022-08-07T18:04:16.380Z,40.87
2022-08-07T18:06:06.462Z,40.78
2022-08-07T18:07:38.612Z,40.92
2022-08-07T18:09:02.253Z,41.02
2022-08-07T18:12:07.027Z,40.92
2022-08-07T18:12:58.075Z,40.93
2022-08-07T18:14:16.245Z,40.91
2022-08-07T18:15:32.600Z,40.85
2022-08-07T18:16:58.993Z,40.91
2022-08-07T18:21:00.938Z,41.03
2022-08-07T18:21:11.783Z,41.08
2022-08-07T18:21:54.890Z,41.13
2022-08-07T18:23:41.956Z,41.31
2022-08-07T18:25:24.322Z,41.57
2022-08-07T18:27:17.510Z,41.71
2022-08-07T18:28:57.711Z,41.81
2022-08-07T18:30:32.345Z,41.93
2022-08-07T18:32:21.795Z,41.92
2022-08-07T18:34:37.598Z,41.88
2022-08-07T18:36:16.009Z,41.80
2022-08-07T18:38:58.809Z,41.77
2022-08-07T18:40:42.651Z,41.81
2022-08-07T18:42:34.918Z,41.66
2022-08-07T18:43:57.741Z,41.56
2022-08-07T18:45:43.143Z,41.65
2022-08-07T18:47:10.575Z,41.83
2022-08-07T18:50:06.025Z,41.91
2022-08-07T18:50:47.972Z,41.86
2022-08-07T18:52:35.247Z,41.88
2022-08-07T18:54:02.339Z,41.72
2022-08-07T18:55:42.472Z,41.84
2022-08-07T18:57:30.112Z,41.99
2022-08-07T18:59:05.975Z,42.16
2022-08-07T19:00:33.342Z,42.23